createdAt,value
2018-12-10T00:00:18.203Z,93.10
2018-12-10T00:03:03.957Z,93.20
2018-12-10T00:05:34.651Z,93.30
2018-12-10T00:08:15.178Z,93.40
2018-12-10T00:10:55.247Z,93.50
2018-12-10T00:13:35.999Z,93.60
2018-12-10T00:16:04.693Z,93.70
2018-12-10T00:18:45.279Z,93.80
2018-12-10T00:21:25.371Z,93.80
2018-12-10T00:24:05.400Z,93.80
2018-12-10T00:26:35.914Z,93.90
2018-12-10T00:29:09.957Z,93.90
2018-12-10T00:31:50.600Z,93.80
2018-12-10T00:34:22.039Z,93.90
2018-12-10T00:36:50.971Z,93.90
2018-12-10T00:39:31.514Z,93.90
2018-12-10T00:42:00.952Z,93.80
2018-12-10T00:44:41.338Z,93.80
2018-12-10T00:47:21.363Z,93.70
2018-12-10T00:50:01.431Z,93.70
2018-12-10T00:52:41.463Z,93.60
2018-12-10T00:55:14.926Z,93.60
2018-12-10T00:57:55.591Z,93.50
2018-12-10T01:00:26.103Z,93.50
2018-12-10T01:03:06.666Z,93.50
2018-12-10T01:05:38.054Z,93.50
2018-12-10T01:08:07.091Z,93.40
2018-12-10T01:10:40.922Z,93.40
2018-12-10T01:13:10.326Z,93.40
2018-12-10T01:15:41.348Z,93.40
2018-12-10T01:18:15.132Z,93.30
2018-12-10T01:20:55.681Z,93.30
2018-12-10T01:23:35.759Z,93.30
2018-12-10T01:29:09.427Z,93.30
2018-12-10T01:31:49.359Z,93.30
2018-12-10T01:34:23.499Z,93.30
2018-12-10T01:37:03.949Z,93.30
2018-12-10T01:39:34.465Z,93.20
2018-12-10T01:42:14.976Z,93.20
2018-12-10T01:44:45.558Z,93.30
2018-12-10T01:47:23.358Z,93.30
2018-12-10T01:50:03.976Z,93.20
2018-12-10T01:52:41.283Z,93.30
2018-12-10T01:55:21.195Z,93.20
2018-12-10T01:57:54.559Z,93.20
2018-12-10T02:00:35.291Z,93.20
2018-12-10T02:03:05.819Z,93.20
2018-12-10T02:05:36.807Z,93.20
2018-12-10T02:08:17.362Z,93.10
2018-12-10T02:10:57.288Z,93.10
2018-12-10T02:13:37.363Z,93.10
2018-12-10T02:16:08.783Z,93.10
2018-12-10T02:18:49.268Z,93.10
2018-12-10T02:21:23.458Z,93.20
2018-12-10T02:23:57.383Z,93.20
2018-12-10T02:26:31.227Z,93.10
2018-12-10T02:29:10.804Z,93.10
2018-12-10T02:31:51.628Z,93.10
2018-12-10T02:34:24.907Z,93.10
2018-12-10T02:36:54.051Z,93.20
2018-12-10T02:39:23.203Z,93.10
2018-12-10T02:42:03.548Z,93.10
2018-12-10T02:44:34.174Z,93.10
2018-12-10T02:47:14.499Z,93.10
2018-12-10T02:49:47.871Z,93.20
2018-12-10T02:52:16.866Z,93.20
2018-12-10T02:54:48.807Z,93.20
2018-12-10T02:57:17.814Z,93.20
2018-12-10T02:59:58.299Z,93.20
2018-12-10T03:02:39.147Z,93.30
2018-12-10T03:05:09.723Z,93.30
2018-12-10T03:07:50.079Z,93.20
2018-12-10T03:10:30.947Z,93.30
2018-12-10T03:13:04.256Z,93.30
2018-12-10T03:15:44.844Z,93.50
2018-12-10T03:18:24.819Z,93.20
2018-12-10T03:21:05.023Z,93.10
2018-12-10T03:23:44.945Z,93.10
2018-12-10T03:26:15.634Z,93.20
2018-12-10T03:28:56.264Z,93.10
2018-12-10T03:31:29.743Z,93.20
2018-12-10T03:34:10.410Z,93.20
2018-12-10T03:36:50.511Z,93.20
2018-12-10T03:39:30.459Z,93.20
2018-12-10T03:42:11.207Z,93.30
2018-12-10T03:44:41.735Z,93.40
2018-12-10T03:47:22.060Z,93.40
2018-12-10T03:49:55.330Z,93.40
2018-12-10T03:52:29.071Z,93.80
2018-12-10T03:55:00.523Z,93.50
2018-12-10T03:57:40.732Z,93.60
2018-12-10T04:00:21.580Z,93.60
2018-12-10T04:03:02.281Z,93.70
2018-12-10T04:05:35.744Z,93.70
2018-12-10T04:08:16.272Z,93.60
2018-12-10T04:10:56.307Z,93.60
2018-12-10T04:13:37.143Z,93.60
2018-12-10T04:16:08.570Z,93.60
2018-12-10T04:18:37.547Z,93.70
2018-12-10T04:21:06.370Z,93.70
2018-12-10T04:23:37.247Z,93.80
2018-12-10T04:26:08.266Z,93.80
2018-12-10T04:28:48.663Z,93.70
2018-12-10T04:31:28.612Z,93.90
2018-12-10T04:34:08.563Z,93.90
2018-12-10T04:36:48.595Z,93.90
2018-12-10T04:39:21.864Z,93.90
2018-12-10T04:41:55.753Z,93.90
2018-12-10T04:44:29.710Z,93.90
2018-12-10T04:47:03.707Z,93.90
2018-12-10T04:49:44.189Z,93.90
2018-12-10T04:52:18.367Z,94.00
2018-12-10T04:54:49.284Z,94.30
2018-12-10T04:57:29.759Z,93.90
2018-12-10T05:00:10.655Z,94.00
2018-12-10T05:02:50.636Z,94.40
2018-12-10T05:05:22.007Z,94.00
2018-12-10T05:07:55.847Z,94.00
2018-12-10T05:10:36.555Z,94.10
2018-12-10T05:13:17.423Z,94.10
2018-12-10T05:15:50.954Z,94.10
2018-12-10T05:18:25.116Z,94.20
2018-12-10T05:20:54.481Z,94.20
2018-12-10T05:23:35.122Z,94.20
2018-12-10T05:26:05.671Z,94.20
2018-12-10T05:28:39.467Z,94.40
2018-12-10T05:31:15.363Z,94.40
2018-12-10T05:33:55.916Z,94.50
2018-12-10T05:36:30.119Z,94.50
2018-12-10T05:39:10.799Z,94.60
2018-12-10T05:41:41.319Z,94.90
2018-12-10T05:44:13.433Z,94.70
2018-12-10T05:46:53.995Z,94.70
2018-12-10T05:49:33.987Z,94.70
2018-12-10T05:52:07.263Z,94.80
2018-12-10T05:54:38.558Z,94.80
2018-12-10T05:57:07.635Z,94.80
2018-12-10T05:59:48.055Z,94.90
2018-12-10T06:02:21.435Z,94.90
2018-12-10T06:07:34.263Z,94.90
2018-12-10T06:10:06.631Z,94.90
2018-12-10T06:12:47.330Z,94.90
2018-12-10T06:15:27.289Z,94.90
2018-12-10T06:17:57.771Z,94.90
2018-12-10T06:20:38.251Z,94.90
2018-12-10T06:23:11.499Z,94.90
2018-12-10T06:25:45.593Z,94.90
2018-12-10T06:28:26.152Z,94.80
2018-12-10T06:30:59.620Z,94.90
2018-12-10T06:33:40.092Z,94.80
2018-12-10T06:36:11.530Z,94.70
2018-12-10T06:38:45.403Z,94.70
2018-12-10T06:41:25.972Z,94.60
2018-12-10T06:43:56.495Z,94.60
2018-12-10T06:46:37.129Z,94.60
2018-12-10T06:49:11.315Z,94.60
2018-12-10T06:51:42.588Z,94.50
2018-12-10T06:54:11.743Z,94.50
2018-12-10T06:56:52.059Z,94.40
2018-12-10T06:59:32.020Z,94.50
2018-12-10T07:02:05.406Z,94.40
2018-12-10T07:04:36.331Z,94.40
2018-12-10T07:12:41.482Z,94.40
2018-12-10T07:15:12.192Z,94.40
2018-12-10T07:17:41.303Z,94.40
2018-12-10T07:20:21.850Z,94.30
2018-12-10T07:22:51.507Z,94.40
2018-12-10T07:25:22.381Z,94.30
2018-12-10T07:28:02.878Z,94.40
2018-12-10T07:30:42.907Z,94.40
2018-12-10T07:33:23.031Z,94.40
2018-12-10T07:35:54.067Z,94.40
2018-12-10T07:38:34.294Z,94.40
2018-12-10T07:41:04.927Z,94.30
2018-12-10T07:43:45.420Z,94.30
2018-12-10T07:46:15.995Z,94.30
2018-12-10T07:48:49.732Z,94.30
2018-12-10T07:51:30.400Z,94.20
2018-12-10T07:54:10.515Z,94.20
2018-12-10T07:56:44.683Z,94.20
2018-12-10T07:59:18.431Z,94.20
2018-12-10T08:01:59.048Z,94.10
2018-12-10T08:04:32.286Z,94.10
2018-12-10T08:07:13.091Z,94.10
2018-12-10T08:09:53.167Z,94.10
2018-12-10T08:12:23.814Z,94.00
2018-12-10T08:14:54.703Z,93.90
2018-12-10T08:17:35.258Z,93.90
2018-12-10T08:20:08.603Z,93.90
2018-12-10T08:22:39.879Z,93.70
2018-12-10T08:25:13.725Z,93.60
2018-12-10T08:27:54.575Z,93.60
2018-12-10T08:30:28.220Z,93.60
2018-12-10T08:33:08.871Z,93.50
2018-12-10T08:35:48.802Z,93.40
2018-12-10T08:38:18.221Z,93.30
2018-12-10T08:40:58.829Z,93.20
2018-12-10T08:43:38.995Z,93.20
2018-12-10T08:46:09.704Z,93.00
2018-12-10T08:48:43.414Z,92.90
2018-12-10T08:51:12.682Z,92.80
2018-12-10T08:53:53.179Z,92.60
2018-12-10T08:56:23.783Z,92.50
2018-12-10T08:59:05.711Z,92.40
2018-12-10T09:01:39.714Z,92.10
2018-12-10T09:04:09.130Z,92.00
2018-12-10T09:06:54.770Z,91.90
2018-12-10T09:09:39.395Z,91.90
2018-12-10T09:12:19.559Z,91.90
2018-12-10T09:14:50.960Z,91.80
2018-12-10T09:20:03.382Z,91.80
2018-12-10T09:22:44.260Z,91.70
2018-12-10T09:25:17.538Z,91.70
2018-12-10T09:27:58.390Z,91.60
2018-12-10T09:30:39.107Z,91.50
2018-12-10T09:33:19.030Z,91.40
2018-12-10T09:35:49.612Z,91.20
2018-12-10T09:38:30.378Z,91.20
2018-12-10T09:41:11.275Z,91.10
2018-12-10T09:43:44.754Z,91.00
2018-12-10T09:46:15.828Z,90.90
2018-12-10T09:48:56.155Z,91.20
2018-12-10T09:51:37.003Z,90.80
2018-12-10T09:54:18.372Z,90.80
2018-12-10T09:56:58.803Z,91.20
2018-12-10T09:59:39.594Z,90.90
2018-12-10T10:02:20.327Z,91.00
2018-12-10T10:04:51.658Z,91.10
2018-12-10T10:07:28.287Z,91.30
2018-12-10T10:10:03.320Z,91.40
2018-12-10T10:12:43.391Z,91.60
2018-12-10T10:15:16.639Z,91.70
2018-12-10T10:20:43.431Z,92.00
2018-12-10T10:23:24.145Z,91.90
2018-12-10T10:25:58.316Z,92.00
2018-12-10T10:28:29.558Z,92.10
2018-12-10T10:31:09.987Z,92.20
2018-12-10T10:33:40.545Z,92.20
2018-12-10T10:36:11.538Z,92.20
2018-12-10T10:38:52.313Z,92.20
2018-12-10T10:41:31.271Z,92.20
2018-12-10T10:44:02.092Z,92.30
2018-12-10T10:46:42.556Z,91.90
2018-12-10T10:49:16.679Z,91.70
2018-12-10T10:51:57.234Z,91.60
2018-12-10T10:54:31.735Z,91.50
2018-12-10T10:57:00.937Z,91.60
2018-12-10T10:59:38.658Z,91.20
2018-12-10T11:02:20.614Z,91.00
2018-12-10T11:04:49.394Z,90.90
2018-12-10T11:07:33.772Z,90.90
2018-12-10T11:10:09.855Z,90.90
2018-12-10T11:12:40.343Z,90.70
2018-12-10T11:15:11.383Z,90.60
2018-12-10T11:17:51.829Z,90.60
2018-12-10T11:20:22.558Z,90.40
2018-12-10T11:23:03.005Z,90.30
2018-12-10T11:25:36.339Z,90.20
2018-12-10T11:28:07.474Z,90.30
2018-12-10T11:30:48.215Z,90.10
2018-12-10T11:33:28.511Z,89.90
2018-12-10T11:36:00.052Z,89.60
2018-12-10T11:38:29.020Z,89.10
2018-12-10T11:41:09.451Z,88.50
2018-12-10T11:43:42.844Z,88.10
2018-12-10T11:46:14.067Z,87.70
2018-12-10T11:48:54.387Z,87.40
2018-12-10T11:51:34.436Z,87.20
2018-12-10T11:54:14.415Z,87.10
2018-12-10T11:56:48.579Z,87.10
2018-12-10T11:59:22.555Z,86.70
2018-12-10T12:01:53.783Z,86.50
2018-12-10T12:04:27.412Z,86.40
2018-12-10T12:07:01.303Z,86.50
2018-12-10T12:09:35.227Z,86.70
2018-12-10T12:12:15.812Z,87.20
2018-12-10T12:17:49.226Z,87.80
2018-12-10T12:20:30.780Z,88.00
2018-12-10T12:22:59.571Z,88.10
2018-12-10T12:25:28.606Z,88.20
2018-12-10T12:27:57.591Z,88.50
2018-12-10T12:30:38.006Z,88.60
2018-12-10T12:33:11.343Z,88.60
2018-12-10T12:35:42.704Z,88.60
2018-12-10T12:38:16.494Z,88.60
2018-12-10T12:40:57.155Z,88.70
2018-12-10T12:43:37.967Z,88.80
2018-12-10T12:46:08.535Z,88.50
2018-12-10T12:48:37.738Z,88.20
2018-12-10T12:51:06.762Z,88.30
2018-12-10T12:53:47.241Z,88.30
2018-12-10T12:56:21.415Z,88.40
2018-12-10T12:58:52.616Z,88.80
2018-12-10T13:01:23.532Z,89.00
2018-12-10T13:03:57.135Z,89.40
2018-12-10T13:06:37.811Z,89.90
2018-12-10T13:09:11.083Z,90.10
2018-12-10T13:11:40.244Z,90.30
2018-12-10T13:14:09.235Z,90.30
2018-12-10T13:16:49.950Z,90.50
2018-12-10T13:19:30.608Z,90.50
2018-12-10T13:21:59.441Z,90.50
2018-12-10T13:24:30.335Z,90.60
2018-12-10T13:27:10.836Z,90.50
2018-12-10T13:29:51.604Z,90.50
2018-12-10T13:32:31.556Z,90.40
2018-12-10T13:35:02.208Z,90.10
2018-12-10T13:37:45.876Z,90.00
2018-12-10T13:40:17.802Z,89.50
2018-12-10T13:42:58.264Z,89.60
2018-12-10T13:45:31.109Z,89.40
2018-12-10T13:48:11.327Z,89.20
2018-12-10T13:50:44.601Z,89.20
2018-12-10T13:53:25.187Z,89.10
2018-12-10T13:55:57.531Z,89.20
2018-12-10T13:58:38.071Z,89.20
2018-12-10T14:01:11.543Z,89.20
2018-12-10T14:03:52.243Z,89.40
2018-12-10T14:06:26.462Z,89.60
2018-12-10T14:09:08.130Z,89.50
2018-12-10T14:11:48.868Z,89.60
2018-12-10T14:14:19.368Z,89.80
2018-12-10T14:16:59.926Z,90.00
2018-12-10T14:19:39.915Z,90.00
2018-12-10T14:22:20.687Z,90.00
2018-12-10T14:24:51.202Z,90.10
2018-12-10T14:27:25.111Z,90.10
2018-12-10T14:30:05.882Z,90.20
2018-12-10T14:32:35.321Z,90.30
2018-12-10T14:35:06.711Z,90.30
2018-12-10T14:37:37.609Z,90.40
2018-12-10T14:40:11.799Z,90.50
2018-12-10T14:42:49.278Z,90.60
2018-12-10T14:45:20.611Z,90.70
2018-12-10T14:47:51.922Z,90.90
2018-12-10T14:50:32.315Z,91.00
2018-12-10T14:53:13.179Z,91.10
2018-12-10T14:55:44.608Z,91.20
2018-12-10T14:58:25.252Z,91.40
2018-12-10T15:01:05.996Z,91.50
2018-12-10T15:03:45.975Z,91.60
2018-12-10T15:06:16.499Z,91.70
2018-12-10T15:08:57.183Z,91.70
2018-12-10T15:11:37.163Z,91.70
2018-12-10T15:14:17.147Z,91.90
2018-12-10T15:16:47.662Z,92.10
2018-12-10T15:19:16.739Z,92.10
2018-12-10T15:21:57.248Z,92.20
2018-12-10T15:24:27.748Z,92.30
2018-12-10T15:26:57.875Z,92.30
2018-12-10T15:29:38.491Z,92.40
2018-12-10T15:32:18.635Z,92.40
2018-12-10T15:34:50.155Z,92.50
2018-12-10T15:37:30.672Z,92.50
2018-12-10T15:40:11.563Z,92.60
2018-12-10T15:42:51.615Z,92.50
2018-12-10T15:45:22.906Z,92.50
2018-12-10T15:47:56.579Z,92.60
2018-12-10T15:50:37.219Z,92.50
2018-12-10T15:53:10.607Z,92.40
2018-12-10T15:55:41.824Z,92.40
2018-12-10T15:58:22.155Z,92.40
2018-12-10T16:00:59.499Z,92.40
2018-12-10T16:03:39.559Z,92.40
2018-12-10T16:06:10.279Z,92.40
2018-12-10T16:08:43.948Z,92.40
2018-12-10T16:11:23.974Z,92.70
2018-12-10T16:14:04.807Z,92.40
2018-12-10T16:16:44.871Z,92.40
2018-12-10T16:19:24.799Z,92.30
2018-12-10T16:22:04.907Z,92.30
2018-12-10T16:24:35.595Z,92.30
2018-12-10T16:27:04.518Z,92.30
2018-12-10T16:29:38.167Z,92.30
2018-12-10T16:32:13.138Z,92.30
2018-12-10T16:34:47.114Z,92.20
2018-12-10T16:37:16.063Z,92.20
2018-12-10T16:40:00.190Z,92.20
2018-12-10T16:42:40.345Z,92.20
2018-12-10T16:45:10.840Z,92.30
2018-12-10T16:47:44.715Z,92.30
2018-12-10T16:50:25.268Z,92.20
2018-12-10T16:53:05.262Z,92.30
2018-12-10T16:55:38.519Z,92.30
2018-12-10T16:58:24.025Z,92.30
2018-12-10T17:01:04.975Z,92.30
2018-12-10T17:03:49.035Z,92.30
2018-12-10T17:06:20.501Z,92.40
2018-12-10T17:08:49.626Z,92.40
2018-12-10T17:11:30.100Z,92.40
2018-12-10T17:14:10.293Z,92.50
2018-12-10T17:16:51.118Z,92.60
2018-12-10T17:19:32.006Z,92.60
2018-12-10T17:22:12.326Z,92.60
2018-12-10T17:24:53.279Z,92.70
2018-12-10T17:27:33.284Z,92.70
2018-12-10T17:30:13.218Z,92.90
2018-12-10T17:32:53.956Z,92.80
2018-12-10T17:35:26.751Z,92.80
2018-12-10T17:38:00.193Z,92.90
2018-12-10T17:40:40.673Z,92.90
2018-12-10T17:43:21.768Z,93.00
2018-12-10T17:45:52.938Z,93.00
2018-12-10T17:48:26.616Z,93.10
2018-12-10T17:51:07.389Z,93.10
2018-12-10T17:53:41.159Z,93.10
2018-12-10T17:56:12.002Z,93.10
2018-12-10T17:58:41.162Z,93.30
2018-12-10T18:01:21.412Z,93.30
2018-12-10T18:03:52.087Z,93.40
2018-12-10T18:06:26.167Z,93.20
2018-12-10T18:09:06.672Z,93.40
2018-12-10T18:11:47.561Z,93.40
2018-12-10T18:14:19.108Z,93.50
2018-12-10T18:16:59.578Z,93.60
2018-12-10T18:19:40.472Z,93.70
2018-12-10T18:22:14.627Z,93.70
2018-12-10T18:24:48.531Z,93.70
2018-12-10T18:27:23.211Z,93.70
2018-12-10T18:29:52.453Z,93.80
2018-12-10T18:32:35.098Z,94.20
2018-12-10T18:35:08.899Z,93.80
2018-12-10T18:37:42.296Z,93.80
2018-12-10T18:40:11.686Z,93.90
2018-12-10T18:42:52.024Z,94.00
2018-12-10T18:45:22.807Z,94.00
2018-12-10T18:48:03.065Z,94.10
2018-12-10T18:50:48.136Z,94.10
2018-12-10T18:53:34.327Z,94.10
2018-12-10T18:56:07.567Z,94.20
2018-12-10T18:58:41.382Z,94.20
2018-12-10T19:01:21.985Z,94.20
2018-12-10T19:03:56.206Z,94.20
2018-12-10T19:06:30.088Z,94.30
2018-12-10T19:09:05.334Z,94.30
2018-12-10T19:11:46.131Z,94.40
2018-12-10T19:14:16.663Z,94.40
2018-12-10T19:16:57.084Z,94.50
2018-12-10T19:19:34.570Z,94.60
2018-12-10T19:22:15.307Z,94.40
2018-12-10T19:24:45.963Z,94.50
2018-12-10T19:27:15.155Z,94.50
2018-12-10T19:29:49.063Z,94.60
2018-12-10T19:32:20.253Z,94.70
2018-12-10T19:34:51.274Z,94.70
2018-12-10T19:37:25.128Z,94.70
2018-12-10T19:40:05.951Z,94.80
2018-12-10T19:42:37.680Z,94.80
2018-12-10T19:45:08.144Z,94.80
2018-12-10T19:47:48.272Z,95.20
2018-12-10T19:50:17.687Z,94.80
2018-12-10T19:53:03.328Z,94.80
2018-12-10T19:55:34.758Z,94.80
2018-12-10T20:01:08.013Z,94.90
2018-12-10T20:03:42.142Z,94.90
2018-12-10T20:06:16.096Z,95.00
2018-12-10T20:08:50.078Z,94.90
2018-12-10T20:11:30.041Z,95.00
2018-12-10T20:14:11.043Z,95.00
2018-12-10T20:16:51.151Z,95.00
2018-12-10T20:19:24.646Z,95.00
2018-12-10T20:21:55.644Z,95.40
2018-12-10T20:24:26.781Z,95.00
2018-12-10T20:27:07.297Z,95.00
2018-12-10T20:29:48.228Z,95.10
2018-12-10T20:32:29.063Z,95.00
2018-12-10T20:35:03.999Z,95.00
2018-12-10T20:37:44.367Z,95.00
2018-12-10T20:40:25.129Z,95.10
2018-12-10T20:42:59.318Z,95.00
2018-12-10T20:45:30.446Z,95.00
2018-12-10T20:48:04.627Z,95.00
2018-12-10T20:50:38.667Z,95.10
2018-12-10T20:53:18.948Z,95.10
2018-12-10T20:55:50.265Z,95.00
2018-12-10T20:58:30.614Z,95.00
2018-12-10T21:01:10.763Z,95.00
2018-12-10T21:03:51.459Z,95.00
2018-12-10T21:06:27.648Z,94.90
2018-12-10T21:09:08.389Z,94.90
2018-12-10T21:11:55.371Z,95.00
2018-12-10T21:14:29.788Z,94.90
2018-12-10T21:16:58.957Z,94.90
2018-12-10T21:19:32.379Z,94.90
2018-12-10T21:22:12.880Z,95.00
2018-12-10T21:24:44.290Z,95.00
2018-12-10T21:27:24.778Z,94.90
2018-12-10T21:29:58.275Z,95.00
2018-12-10T21:32:38.749Z,94.90
2018-12-10T21:35:10.205Z,95.00
2018-12-10T21:37:52.379Z,95.00
2018-12-10T21:40:33.860Z,95.00
2018-12-10T21:43:08.999Z,95.00
2018-12-10T21:45:43.272Z,94.90
2018-12-10T21:48:24.140Z,94.90
2018-12-10T21:51:04.202Z,94.90
2018-12-10T21:53:44.251Z,94.90
2018-12-10T21:56:15.562Z,94.90
2018-12-10T21:58:56.072Z,94.80
2018-12-10T22:01:37.402Z,94.80
2018-12-10T22:04:18.270Z,94.80
2018-12-10T22:06:47.587Z,94.70
2018-12-10T22:09:27.983Z,94.70
2018-12-10T22:12:08.137Z,94.60
2018-12-10T22:14:38.781Z,94.60
2018-12-10T22:17:19.466Z,94.60
2018-12-10T22:20:00.446Z,94.50
2018-12-10T22:22:41.542Z,94.50
2018-12-10T22:25:12.122Z,94.50
2018-12-10T22:27:52.462Z,94.40
2018-12-10T22:30:32.503Z,94.40
2018-12-10T22:33:12.583Z,94.30
2018-12-10T22:35:43.092Z,94.40
2018-12-10T22:38:23.526Z,94.30
2018-12-10T22:40:56.774Z,94.20
2018-12-10T22:43:37.508Z,94.20
2018-12-10T22:46:08.132Z,94.10
2018-12-10T22:48:48.718Z,94.00
2018-12-10T22:51:28.681Z,94.00
2018-12-10T22:54:08.742Z,94.00
2018-12-10T22:56:48.867Z,94.00
2018-12-10T22:59:28.895Z,94.00
2018-12-10T23:02:02.308Z,93.90
2018-12-10T23:04:33.298Z,93.90
2018-12-10T23:07:13.892Z,93.90
2018-12-10T23:09:44.391Z,93.90
2018-12-10T23:12:25.015Z,93.80
2018-12-10T23:14:56.459Z,93.90
2018-12-10T23:17:36.915Z,93.90
2018-12-10T23:20:17.805Z,93.80
2018-12-10T23:22:48.452Z,93.80
2018-12-10T23:25:22.431Z,93.80
2018-12-10T23:28:02.862Z,93.90
2018-12-10T23:30:34.157Z,93.70
2018-12-10T23:33:14.554Z,93.60
2018-12-10T23:35:45.099Z,93.60
2018-12-10T23:38:18.797Z,93.60
2018-12-10T23:40:52.942Z,93.50
2018-12-10T23:43:26.819Z,93.50
2018-12-10T23:45:58.026Z,93.50
2018-12-10T23:48:38.554Z,93.50
2018-12-10T23:51:11.815Z,93.40
2018-12-10T23:53:52.467Z,93.40
2018-12-10T23:56:22.976Z,93.40
2018-12-10T23:59:03.575Z,93.70
